Time;durP1;ratioP1;P1;durP2;ratioP2;P2;SDS_P1;SDS_P2;PMS_P1;PMS_P2;Temp;Humidity;BMP_temperature;BMP_pressure;BME280_temperature;BME280_humidity;BME280_pressure;Samples;Min_cycle;Max_cycle;Signal;HPM_P1;HPM_P2
2021/06/12 00:00:47;;;;;;;1.53;1.43;;;;;;;;;;5081825;28;20436;-80
2021/06/12 00:03:13;;;;;;;1.70;1.60;;;;;;;;;;5082157;28;20456;-79
2021/06/12 00:05:39;;;;;;;2.35;1.67;;;;;;;;;;5082305;28;20180;-80
2021/06/12 00:08:05;;;;;;;1.90;1.80;;;;;;;;;;5078330;28;20268;-80
2021/06/12 00:10:32;;;;;;;1.83;1.60;;;;;;;;;;5081732;28;20738;-80
2021/06/12 00:12:58;;;;;;;2.10;1.90;;;;;;;;;;5090921;28;20575;-80
2021/06/12 00:15:25;;;;;;;2.90;1.97;;;;;;;;;;5095746;28;20211;-80
2021/06/12 00:17:51;;;;;;;1.75;1.48;;;;;;;;;;5082793;28;20435;-79
2021/06/12 00:20:19;;;;;;;1.80;1.70;;;;;;;;;;5079911;28;20180;-79
2021/06/12 00:22:45;;;;;;;2.25;1.77;;;;;;;;;;5081392;28;20224;-80
2021/06/12 00:25:15;;;;;;;3.13;2.60;;;;;;;;;;5080588;28;20188;-80
2021/06/12 00:27:41;;;;;;;3.25;2.60;;;;;;;;;;5080827;28;20212;-80
2021/06/12 00:30:08;;;;;;;3.15;2.40;;;;;;;;;;5080138;28;20681;-80
2021/06/12 00:32:34;;;;;;;2.60;2.00;;;;;;;;;;5081342;28;20197;-80
2021/06/12 00:35:00;;;;;;;2.38;1.80;;;;;;;;;;5078373;28;20178;-80
2021/06/12 00:37:26;;;;;;;2.37;2.17;;;;;;;;;;5080746;28;20207;-80
2021/06/12 00:39:53;;;;;;;2.80;1.90;;;;;;;;;;5079195;28;20427;-80
2021/06/12 00:42:19;;;;;;;17.17;13.48;;;;;;;;;;5081129;28;20398;-80
2021/06/12 00:44:45;;;;;;;7.95;5.47;;;;;;;;;;5081615;28;20169;-79
2021/06/12 00:47:11;;;;;;;3.05;2.17;;;;;;;;;;5078737;28;20223;-80
2021/06/12 00:49:37;;;;;;;3.40;2.55;;;;;;;;;;5079356;28;20173;-80
2021/06/12 00:52:03;;;;;;;2.50;1.70;;;;;;;;;;5080738;28;20203;-80
2021/06/12 00:54:30;;;;;;;2.42;2.22;;;;;;;;;;5079062;28;20208;-80
2021/06/12 00:56:56;;;;;;;2.95;2.72;;;;;;;;;;5082556;28;20687;-80
2021/06/12 00:59:22;;;;;;;2.55;2.35;;;;;;;;;;5077077;28;20252;-81
2021/06/12 01:01:48;;;;;;;3.50;3.20;;;;;;;;;;5079426;28;20208;-80
2021/06/12 01:04:14;;;;;;;3.45;2.50;;;;;;;;;;5079656;28;20431;-80
2021/06/12 01:06:41;;;;;;;3.40;2.80;;;;;;;;;;5079883;28;20191;-81
2021/06/12 01:09:07;;;;;;;5.60;2.80;;;;;;;;;;5080120;28;20441;-79
2021/06/12 01:11:40;;;;;;;2.55;2.35;;;;;;;;;;5080448;28;20629;-80
2021/06/12 01:14:11;;;;;;;4.55;3.00;;;;;;;;;;5079153;28;20281;-80
2021/06/12 01:16:44;;;;;;;2.95;2.70;;;;;;;;;;5072417;28;20180;-80
2021/06/12 01:19:16;;;;;;;4.18;2.85;;;;;;;;;;5079640;28;20173;-80
2021/06/12 01:21:43;;;;;;;3.03;2.70;;;;;;;;;;5082640;28;20298;-79
2021/06/12 01:24:21;;;;;;;2.67;2.47;;;;;;;;;;5083121;28;20191;-80
2021/06/12 01:26:53;;;;;;;2.85;2.65;;;;;;;;;;5084792;28;20633;-80
2021/06/12 01:29:37;;;;;;;2.50;2.30;;;;;;;;;;5081728;28;20213;-78
2021/06/12 01:32:04;;;;;;;5.05;2.20;;;;;;;;;;5081524;28;20341;-80
2021/06/12 01:34:30;;;;;;;2.08;1.88;;;;;;;;;;5081864;28;20295;-80
2021/06/12 01:36:57;;;;;;;2.65;1.90;;;;;;;;;;5082289;28;20190;-80
2021/06/12 01:39:26;;;;;;;2.30;2.15;;;;;;;;;;5083261;28;20188;-80
2021/06/12 01:41:54;;;;;;;2.05;1.88;;;;;;;;;;5085648;28;20169;-80
2021/06/12 01:44:20;;;;;;;2.45;2.13;;;;;;;;;;5082206;28;20212;-80
2021/06/12 01:46:47;;;;;;;2.15;1.95;;;;;;;;;;5080836;28;20228;-80
2021/06/12 01:49:18;;;;;;;2.08;1.90;;;;;;;;;;5081409;28;20196;-79
2021/06/12 01:51:44;;;;;;;2.00;1.90;;;;;;;;;;5081558;28;20707;-79
2021/06/12 01:54:11;;;;;;;2.15;1.95;;;;;;;;;;5082876;28;20291;-80
2021/06/12 01:56:38;;;;;;;2.13;1.95;;;;;;;;;;5083157;28;20181;-80
2021/06/12 01:59:05;;;;;;;2.45;2.15;;;;;;;;;;5080921;28;20663;-79
2021/06/12 02:01:32;;;;;;;3.05;1.90;;;;;;;;;;5082087;28;20660;-80
2021/06/12 02:04:00;;;;;;;1.92;1.73;;;;;;;;;;5082818;28;20188;-80
2021/06/12 02:06:26;;;;;;;2.30;1.83;;;;;;;;;;5084057;28;20172;-80
2021/06/12 02:08:52;;;;;;;2.15;1.65;;;;;;;;;;5084589;28;20703;-79
2021/06/12 02:11:19;;;;;;;2.50;2.30;;;;;;;;;;5082558;28;20669;-80
2021/06/12 02:13:45;;;;;;;1.70;1.60;;;;;;;;;;5081060;28;20200;-79
2021/06/12 02:16:13;;;;;;;1.50;1.40;;;;;;;;;;5083131;28;20188;-80
2021/06/12 02:18:40;;;;;;;3.17;2.00;;;;;;;;;;5080961;28;20193;-79
2021/06/12 02:21:06;;;;;;;2.38;2.10;;;;;;;;;;5083849;28;20200;-79
2021/06/12 02:23:32;;;;;;;1.85;1.75;;;;;;;;;;5082432;28;20169;-80
2021/06/12 02:25:58;;;;;;;1.47;1.37;;;;;;;;;;5081285;28;20204;-79
2021/06/12 02:28:28;;;;;;;2.50;1.98;;;;;;;;;;5081450;28;20943;-79
2021/06/12 02:30:58;;;;;;;2.22;1.95;;;;;;;;;;5081789;28;20185;-79
2021/06/12 02:33:25;;;;;;;1.83;1.58;;;;;;;;;;5082202;28;20200;-79
2021/06/12 02:35:51;;;;;;;1.75;1.60;;;;;;;;;;5094680;28;20241;-79
2021/06/12 02:38:17;;;;;;;1.92;1.73;;;;;;;;;;5080749;28;20215;-79
2021/06/12 02:40:43;;;;;;;3.70;1.93;;;;;;;;;;5081301;28;20189;-79
2021/06/12 02:43:09;;;;;;;2.28;2.08;;;;;;;;;;5082319;28;20435;-80
2021/06/12 02:45:35;;;;;;;1.42;1.33;;;;;;;;;;5080019;28;20260;-79
2021/06/12 02:48:03;;;;;;;1.67;1.58;;;;;;;;;;5084058;28;20231;-79
2021/06/12 02:50:31;;;;;;;1.83;1.42;;;;;;;;;;5081758;28;20177;-79
2021/06/12 02:53:01;;;;;;;2.00;1.80;;;;;;;;;;5080792;28;20208;-79
2021/06/12 02:55:28;;;;;;;1.98;1.42;;;;;;;;;;5080776;28;20172;-79
2021/06/12 02:57:55;;;;;;;2.95;1.70;;;;;;;;;;5080932;28;20176;-79
2021/06/12 03:00:22;;;;;;;2.60;1.73;;;;;;;;;;5081817;28;20199;-79
2021/06/12 03:02:48;;;;;;;1.90;1.50;;;;;;;;;;5083461;28;20184;-80
2021/06/12 03:05:28;;;;;;;1.80;1.70;;;;;;;;;;5079882;28;20195;-79
2021/06/12 03:07:56;;;;;;;1.83;1.42;;;;;;;;;;5079699;28;20194;-79
2021/06/12 03:10:23;;;;;;;1.48;1.38;;;;;;;;;;5080238;28;20184;-79
2021/06/12 03:12:50;;;;;;;2.00;1.65;;;;;;;;;;5080253;28;20208;-79
2021/06/12 03:15:16;;;;;;;2.45;1.83;;;;;;;;;;5082263;28;20176;-79
2021/06/12 03:17:46;;;;;;;1.65;1.30;;;;;;;;;;5082757;28;20230;-80
2021/06/12 03:20:13;;;;;;;2.30;1.40;;;;;;;;;;5078439;28;20200;-80
2021/06/12 03:22:39;;;;;;;2.70;1.67;;;;;;;;;;5079295;28;20180;-80
2021/06/12 03:25:06;;;;;;;3.75;1.83;;;;;;;;;;5079914;28;20237;-79
2021/06/12 03:27:32;;;;;;;1.45;1.35;;;;;;;;;;5079997;28;20272;-79
2021/06/12 03:29:58;;;;;;;1.73;1.63;;;;;;;;;;5083845;28;20190;-79
2021/06/12 03:32:25;;;;;;;2.30;1.80;;;;;;;;;;5081864;28;20177;-79
2021/06/12 03:34:51;;;;;;;3.97;1.50;;;;;;;;;;5079928;28;20530;-79
2021/06/12 03:37:18;;;;;;;1.60;1.50;;;;;;;;;;5079893;28;20192;-79
2021/06/12 03:39:44;;;;;;;3.28;1.70;;;;;;;;;;5079477;28;20180;-79
2021/06/12 03:42:10;;;;;;;1.73;1.63;;;;;;;;;;5082597;28;20268;-79
2021/06/12 03:44:38;;;;;;;1.70;1.60;;;;;;;;;;5083359;28;20168;-79
2021/06/12 03:47:05;;;;;;;3.22;1.35;;;;;;;;;;5079670;28;20212;-79
2021/06/12 03:49:31;;;;;;;1.45;1.35;;;;;;;;;;5079612;28;20180;-79
2021/06/12 03:51:58;;;;;;;1.40;1.20;;;;;;;;;;5080101;28;20188;-79
2021/06/12 03:54:24;;;;;;;2.30;1.60;;;;;;;;;;5079859;28;20225;-78
2021/06/12 03:56:50;;;;;;;2.97;1.75;;;;;;;;;;5083751;28;20161;-79
2021/06/12 03:59:17;;;;;;;1.90;1.75;;;;;;;;;;5079546;28;20184;-78
2021/06/12 04:01:43;;;;;;;2.10;1.48;;;;;;;;;;5079314;28;20195;-79
2021/06/12 04:04:09;;;;;;;1.92;1.60;;;;;;;;;;5078352;28;20210;-78
2021/06/12 04:06:35;;;;;;;1.48;1.38;;;;;;;;;;5079439;28;20196;-79
2021/06/12 04:09:01;;;;;;;1.50;1.40;;;;;;;;;;5081990;28;20180;-78
2021/06/12 04:11:27;;;;;;;1.63;1.30;;;;;;;;;;5080208;28;20884;-79
2021/06/12 04:13:53;;;;;;;2.47;1.63;;;;;;;;;;5078193;28;20461;-79
2021/06/12 04:16:19;;;;;;;1.60;1.50;;;;;;;;;;5079946;28;20199;-79
2021/06/12 04:18:45;;;;;;;1.60;1.48;;;;;;;;;;5079472;28;20435;-78
2021/06/12 04:21:11;;;;;;;1.40;1.30;;;;;;;;;;5080035;28;20173;-79
2021/06/12 04:23:37;;;;;;;2.30;1.70;;;;;;;;;;5081483;28;20419;-78
2021/06/12 04:26:03;;;;;;;1.57;1.30;;;;;;;;;;5079579;28;20650;-78
2021/06/12 04:28:29;;;;;;;1.77;1.40;;;;;;;;;;5079346;28;20448;-79
2021/06/12 04:30:55;;;;;;;3.00;1.63;;;;;;;;;;5077767;28;20444;-78
2021/06/12 04:33:21;;;;;;;1.70;1.38;;;;;;;;;;5078640;28;20467;-78
2021/06/12 04:35:47;;;;;;;4.93;1.58;;;;;;;;;;5092258;28;20177;-79
2021/06/12 04:38:13;;;;;;;2.00;1.90;;;;;;;;;;5078289;28;20180;-79
2021/06/12 04:40:39;;;;;;;7.40;1.77;;;;;;;;;;5079213;28;20445;-79
2021/06/12 04:43:06;;;;;;;4.77;1.80;;;;;;;;;;5080512;28;20528;-79
2021/06/12 04:45:32;;;;;;;1.92;1.83;;;;;;;;;;5079872;28;20439;-79
2021/06/12 04:47:58;;;;;;;4.43;2.10;;;;;;;;;;5082247;28;20235;-79
2021/06/12 04:50:24;;;;;;;1.90;1.70;;;;;;;;;;5079566;28;20636;-78
2021/06/12 04:52:50;;;;;;;2.55;2.35;;;;;;;;;;5079964;28;20196;-79
2021/06/12 04:55:16;;;;;;;2.65;2.20;;;;;;;;;;5081191;28;20180;-78
2021/06/12 04:57:42;;;;;;;3.00;2.80;;;;;;;;;;5082677;28;20185;-79
2021/06/12 05:00:09;;;;;;;3.88;2.60;;;;;;;;;;5084758;28;20453;-79
2021/06/12 05:02:38;;;;;;;5.93;3.08;;;;;;;;;;5084448;28;20191;-80
2021/06/12 05:05:04;;;;;;;3.15;2.47;;;;;;;;;;5084045;28;20244;-79
2021/06/12 05:07:30;;;;;;;3.92;3.47;;;;;;;;;;5083306;28;20188;-79
2021/06/12 05:09:56;;;;;;;2.80;2.60;;;;;;;;;;5083896;28;20191;-80
2021/06/12 05:12:22;;;;;;;3.87;3.37;;;;;;;;;;5082758;28;20443;-79
2021/06/12 05:14:50;;;;;;;3.45;3.15;;;;;;;;;;5096538;28;20437;-79
2021/06/12 05:17:18;;;;;;;3.83;3.38;;;;;;;;;;5081281;28;20183;-79
2021/06/12 05:19:44;;;;;;;5.25;2.63;;;;;;;;;;5081813;28;20244;-79
2021/06/12 05:22:10;;;;;;;3.50;2.80;;;;;;;;;;5082654;28;20206;-80
2021/06/12 05:24:36;;;;;;;2.93;2.50;;;;;;;;;;5082814;28;20207;-80
2021/06/12 05:27:02;;;;;;;2.70;2.50;;;;;;;;;;5085857;28;20426;-80
2021/06/12 05:29:28;;;;;;;3.35;2.72;;;;;;;;;;5098827;28;20588;-81
2021/06/12 05:31:54;;;;;;;2.93;2.63;;;;;;;;;;5081789;28;20215;-80
2021/06/12 05:34:20;;;;;;;3.53;2.23;;;;;;;;;;5081440;28;20524;-81
2021/06/12 05:36:46;;;;;;;2.50;2.30;;;;;;;;;;5084256;28;20430;-81
2021/06/12 05:39:12;;;;;;;3.17;2.63;;;;;;;;;;5083256;28;20441;-81
2021/06/12 05:41:39;;;;;;;3.05;2.25;;;;;;;;;;5083651;28;20176;-79
2021/06/12 05:44:05;;;;;;;3.65;2.30;;;;;;;;;;5081504;28;20187;-81
2021/06/12 05:46:31;;;;;;;2.47;2.28;;;;;;;;;;5081960;28;20685;-83
2021/06/12 05:48:59;;;;;;;3.45;2.50;;;;;;;;;;5082598;28;20192;-82
2021/06/12 05:51:25;;;;;;;3.35;3.05;;;;;;;;;;5082498;28;20177;-82
2021/06/12 05:53:52;;;;;;;2.35;2.20;;;;;;;;;;5085609;28;20210;-80
2021/06/12 05:56:18;;;;;;;4.05;3.17;;;;;;;;;;5080773;28;20180;-82
2021/06/12 05:58:43;;;;;;;2.50;2.30;;;;;;;;;;5082437;28;20218;-79
2021/06/12 06:01:11;;;;;;;3.22;2.33;;;;;;;;;;5080057;28;20435;-82
2021/06/12 06:03:38;;;;;;;2.60;2.40;;;;;;;;;;5080759;28;20666;-82
2021/06/12 06:06:06;;;;;;;3.85;1.90;;;;;;;;;;5083498;28;20180;-82
2021/06/12 06:08:32;;;;;;;3.00;2.17;;;;;;;;;;5084532;28;20184;-81
2021/06/12 06:10:58;;;;;;;4.27;2.60;;;;;;;;;;5080304;28;20195;-81
2021/06/12 06:13:24;;;;;;;3.20;2.90;;;;;;;;;;5081874;28;20497;-82
2021/06/12 06:15:50;;;;;;;3.57;3.27;;;;;;;;;;5082674;28;20182;-81
2021/06/12 06:18:16;;;;;;;3.25;2.95;;;;;;;;;;5082569;28;20426;-80
2021/06/12 06:20:42;;;;;;;3.75;3.45;;;;;;;;;;5094102;28;20176;-82
2021/06/12 06:23:08;;;;;;;5.63;2.85;;;;;;;;;;5081161;28;20180;-83
2021/06/12 06:25:34;;;;;;;4.13;3.72;;;;;;;;;;5083202;28;20189;-82
2021/06/12 06:28:00;;;;;;;3.80;3.00;;;;;;;;;;5081151;28;20196;-81
2021/06/12 06:30:27;;;;;;;5.07;3.70;;;;;;;;;;5080781;28;20447;-85
2021/06/12 06:32:53;;;;;;;4.72;4.07;;;;;;;;;;5084081;28;20455;-83
2021/06/12 06:35:18;;;;;;;4.10;3.60;;;;;;;;;;5082114;28;20172;-80
2021/06/12 06:37:44;;;;;;;7.83;5.40;;;;;;;;;;5079777;28;20435;-81
2021/06/12 06:40:11;;;;;;;6.47;5.77;;;;;;;;;;5080006;28;20832;-80
2021/06/12 06:42:37;;;;;;;6.43;4.65;;;;;;;;;;5077849;28;20450;-79
2021/06/12 06:45:04;;;;;;;7.63;6.47;;;;;;;;;;5077404;28;20188;-82
2021/06/12 06:47:30;;;;;;;6.88;6.07;;;;;;;;;;5080267;28;20356;-82
2021/06/12 06:49:56;;;;;;;6.70;6.10;;;;;;;;;;5078142;28;20176;-82
2021/06/12 06:52:22;;;;;;;7.13;6.43;;;;;;;;;;5080562;28;20187;-85
2021/06/12 06:54:48;;;;;;;7.97;6.90;;;;;;;;;;5082294;28;20212;-86
2021/06/12 06:57:14;;;;;;;7.40;6.10;;;;;;;;;;5081202;28;20195;-80
2021/06/12 06:59:40;;;;;;;7.87;7.00;;;;;;;;;;5081617;28;20212;-82
2021/06/12 07:02:06;;;;;;;9.82;7.80;;;;;;;;;;5081121;28;20516;-81
2021/06/12 07:04:32;;;;;;;9.33;7.60;;;;;;;;;;5076763;28;20209;-82
2021/06/12 07:06:59;;;;;;;10.60;8.13;;;;;;;;;;5081414;28;20441;-81
2021/06/12 07:09:25;;;;;;;11.35;9.90;;;;;;;;;;5081570;28;20247;-79
2021/06/12 07:11:52;;;;;;;11.07;9.88;;;;;;;;;;5079646;28;20718;-80
2021/06/12 07:14:18;;;;;;;12.68;11.27;;;;;;;;;;5079548;28;20208;-83
2021/06/12 07:16:44;;;;;;;12.67;10.70;;;;;;;;;;5076305;28;20210;-81
2021/06/12 07:19:10;;;;;;;13.33;11.80;;;;;;;;;;5078666;28;20442;-82
2021/06/12 07:21:35;;;;;;;18.10;12.10;;;;;;;;;;5077954;28;20414;-81
2021/06/12 07:24:01;;;;;;;18.20;13.50;;;;;;;;;;5083399;28;20672;-79
2021/06/12 07:26:27;;;;;;;15.77;12.57;;;;;;;;;;5078895;28;20416;-83
2021/06/12 07:28:53;;;;;;;13.65;11.52;;;;;;;;;;5077736;28;20527;-82
2021/06/12 07:31:19;;;;;;;13.00;11.03;;;;;;;;;;5079636;28;20192;-85
2021/06/12 07:33:46;;;;;;;20.10;12.27;;;;;;;;;;5080156;28;20467;-83
2021/06/12 07:36:11;;;;;;;13.70;11.52;;;;;;;;;;5075537;28;20490;-82
2021/06/12 07:38:37;;;;;;;16.03;10.00;;;;;;;;;;5079228;28;20201;-82
2021/06/12 07:41:03;;;;;;;14.47;10.70;;;;;;;;;;5079272;28;20920;-81
2021/06/12 07:43:29;;;;;;;16.38;11.23;;;;;;;;;;5079365;28;20445;-82
2021/06/12 07:45:55;;;;;;;10.53;9.40;;;;;;;;;;5078145;28;20208;-82
2021/06/12 07:48:21;;;;;;;13.57;9.23;;;;;;;;;;5075061;28;20484;-81
2021/06/12 07:50:47;;;;;;;11.83;10.50;;;;;;;;;;5080792;28;20426;-83
2021/06/12 07:53:13;;;;;;;13.15;11.13;;;;;;;;;;5079199;28;20550;-81
2021/06/12 07:55:40;;;;;;;12.17;10.63;;;;;;;;;;5078559;28;20664;-81
2021/06/12 07:58:06;;;;;;;11.60;9.75;;;;;;;;;;5079718;28;20993;-80
2021/06/12 08:00:32;;;;;;;11.73;9.33;;;;;;;;;;5079187;28;20247;-80
2021/06/12 08:02:58;;;;;;;12.95;10.10;;;;;;;;;;5083804;28;20755;-83
2021/06/12 08:05:25;;;;;;;15.00;10.15;;;;;;;;;;5078799;28;20632;-82
2021/06/12 08:07:51;;;;;;;12.85;10.20;;;;;;;;;;5080433;28;20185;-81
2021/06/12 08:10:17;;;;;;;12.70;9.40;;;;;;;;;;5078413;28;20191;-81
2021/06/12 08:12:43;;;;;;;12.70;9.93;;;;;;;;;;5081128;28;20188;-82
2021/06/12 08:15:09;;;;;;;13.17;10.83;;;;;;;;;;5086416;28;20188;-81
2021/06/12 08:17:35;;;;;;;15.13;11.50;;;;;;;;;;5084142;28;20481;-81
2021/06/12 08:20:01;;;;;;;14.68;10.85;;;;;;;;;;5080529;28;20193;-81
2021/06/12 08:22:27;;;;;;;15.23;11.57;;;;;;;;;;5077918;28;20179;-81
2021/06/12 08:24:54;;;;;;;15.02;12.00;;;;;;;;;;5080305;28;20459;-83
2021/06/12 08:27:19;;;;;;;16.20;12.45;;;;;;;;;;5079669;28;20178;-81
2021/06/12 08:29:48;;;;;;;13.87;11.40;;;;;;;;;;5085597;28;20187;-83
2021/06/12 08:32:14;;;;;;;16.80;12.60;;;;;;;;;;5077303;28;20442;-81
2021/06/12 08:34:40;;;;;;;18.02;12.90;;;;;;;;;;5073213;28;20239;-82
2021/06/12 08:37:06;;;;;;;17.58;12.90;;;;;;;;;;5082557;28;20207;-76
2021/06/12 08:39:33;;;;;;;21.33;14.02;;;;;;;;;;5081993;28;20193;-75
2021/06/12 08:41:59;;;;;;;15.27;11.65;;;;;;;;;;5087231;28;20166;-75
2021/06/12 08:44:26;;;;;;;13.80;11.15;;;;;;;;;;5083132;28;20186;-75
2021/06/12 08:46:52;;;;;;;17.88;12.13;;;;;;;;;;5081809;28;20220;-75
2021/06/12 08:49:18;;;;;;;18.33;13.32;;;;;;;;;;5083739;28;20242;-74
2021/06/12 08:51:45;;;;;;;18.38;12.65;;;;;;;;;;5083286;28;20208;-74
2021/06/12 08:54:17;;;;;;;15.00;11.43;;;;;;;;;;5085206;28;20211;-75
2021/06/12 08:56:45;;;;;;;15.60;12.00;;;;;;;;;;5085323;28;20552;-75
2021/06/12 08:59:11;;;;;;;17.75;12.75;;;;;;;;;;5081370;28;20183;-75
2021/06/12 09:01:37;;;;;;;20.25;13.07;;;;;;;;;;5083250;28;20192;-75
2021/06/12 09:04:04;;;;;;;19.43;14.27;;;;;;;;;;5082906;28;20189;-75
2021/06/12 09:06:29;;;;;;;22.88;14.57;;;;;;;;;;5084014;28;20432;-74
2021/06/12 09:08:57;;;;;;;22.87;15.13;;;;;;;;;;5086383;28;20182;-74
2021/06/12 09:11:23;;;;;;;19.77;14.02;;;;;;;;;;5087710;28;20439;-74
2021/06/12 09:13:49;;;;;;;18.33;13.52;;;;;;;;;;5082293;28;20212;-74
2021/06/12 09:16:21;;;;;;;21.70;14.73;;;;;;;;;;5082375;28;20178;-74
2021/06/12 09:18:48;;;;;;;19.85;13.43;;;;;;;;;;5083895;28;20455;-74
2021/06/12 09:21:24;;;;;;;21.58;14.80;;;;;;;;;;5083879;28;20309;-74
2021/06/12 09:23:52;;;;;;;22.95;16.15;;;;;;;;;;5085026;28;20170;-74
2021/06/12 09:26:19;;;;;;;25.40;17.27;;;;;;;;;;5082551;28;20174;-74
2021/06/12 09:28:46;;;;;;;22.17;15.63;;;;;;;;;;5083103;28;20194;-74
2021/06/12 09:31:16;;;;;;;23.38;14.77;;;;;;;;;;5082363;28;20192;-75
2021/06/12 09:33:42;;;;;;;22.33;14.77;;;;;;;;;;5081838;28;20464;-74
2021/06/12 09:36:08;;;;;;;28.30;18.13;;;;;;;;;;5085284;28;20181;-75
2021/06/12 09:38:36;;;;;;;21.92;14.05;;;;;;;;;;5083490;28;20421;-74
2021/06/12 09:41:20;;;;;;;22.02;14.73;;;;;;;;;;5080290;28;20185;-74
2021/06/12 09:43:46;;;;;;;21.48;14.60;;;;;;;;;;5080726;28;20210;-74
2021/06/12 09:46:31;;;;;;;19.17;12.35;;;;;;;;;;5080899;28;20206;-74
2021/06/12 09:48:57;;;;;;;20.73;13.60;;;;;;;;;;5082246;28;20644;-74
2021/06/12 09:51:23;;;;;;;18.90;14.15;;;;;;;;;;5082405;28;20190;-75
2021/06/12 09:53:50;;;;;;;19.98;14.05;;;;;;;;;;5084404;28;20291;-75
2021/06/12 09:56:16;;;;;;;19.50;13.10;;;;;;;;;;5083875;28;20178;-74
2021/06/12 09:58:42;;;;;;;18.25;12.50;;;;;;;;;;5080920;28;20186;-73
2021/06/12 10:01:09;;;;;;;18.77;13.73;;;;;;;;;;5097103;28;20185;-74
2021/06/12 10:03:35;;;;;;;19.25;12.75;;;;;;;;;;5081535;28;20179;-75
2021/06/12 10:06:11;;;;;;;17.45;13.43;;;;;;;;;;5085584;28;20179;-75
2021/06/12 10:08:37;;;;;;;21.60;14.15;;;;;;;;;;5085437;28;20174;-75
2021/06/12 10:11:03;;;;;;;19.85;13.85;;;;;;;;;;5081131;28;20637;-74
2021/06/12 10:13:30;;;;;;;19.15;12.93;;;;;;;;;;5081550;28;20572;-74
2021/06/12 10:15:56;;;;;;;20.92;13.38;;;;;;;;;;5082713;28;20195;-75
2021/06/12 10:18:22;;;;;;;18.83;13.60;;;;;;;;;;5082100;28;20321;-74
2021/06/12 10:20:49;;;;;;;19.95;15.30;;;;;;;;;;5084325;28;20222;-75
2021/06/12 10:23:15;;;;;;;19.20;12.80;;;;;;;;;;5080014;28;20184;-77
2021/06/12 10:25:42;;;;;;;19.10;14.15;;;;;;;;;;5079931;28;20208;-75
2021/06/12 10:28:09;;;;;;;19.67;13.70;;;;;;;;;;5082921;28;20199;-72
2021/06/12 10:30:36;;;;;;;21.30;14.20;;;;;;;;;;5081224;28;20923;-75
2021/06/12 10:33:02;;;;;;;18.35;13.10;;;;;;;;;;5083277;28;20221;-74
2021/06/12 10:35:28;;;;;;;21.07;14.17;;;;;;;;;;5082907;28;20176;-75
2021/06/12 10:38:13;;;;;;;22.73;14.50;;;;;;;;;;5080027;28;20438;-74
2021/06/12 10:40:47;;;;;;;22.83;15.57;;;;;;;;;;5082059;28;20275;-74
2021/06/12 10:43:16;;;;;;;21.10;15.00;;;;;;;;;;5071080;28;20427;-74
2021/06/12 10:45:42;;;;;;;14.40;12.70;;;;;;;;;;5080864;28;20552;-74
2021/06/12 10:48:09;;;;;;;18.38;14.15;;;;;;;;;;5082312;28;20466;-74
2021/06/12 10:50:38;;;;;;;18.40;12.87;;;;;;;;;;5083111;28;20189;-75
2021/06/12 10:53:17;;;;;;;14.67;11.20;;;;;;;;;;5079779;28;20994;-73
2021/06/12 10:55:45;;;;;;;18.43;13.40;;;;;;;;;;5080814;28;20430;-74
2021/06/12 10:58:34;;;;;;;16.70;13.87;;;;;;;;;;5079660;28;20454;-74
2021/06/12 11:01:11;;;;;;;18.03;14.10;;;;;;;;;;5080921;28;20438;-74
2021/06/12 11:04:10;;;;;;;15.20;12.07;;;;;;;;;;5076519;28;20423;-75
2021/06/12 11:09:14;;;;;;;17.00;12.97;;;;;;;;;;5084303;28;21007;-75
2021/06/12 11:11:59;;;;;;;16.20;13.07;;;;;;;;;;5084274;28;20442;-74
2021/06/12 11:14:31;;;;;;;16.37;12.37;;;;;;;;;;5095517;28;20470;-74
2021/06/12 11:17:07;;;;;;;17.27;13.60;;;;;;;;;;5080917;28;20442;-75
2021/06/12 11:19:34;;;;;;;17.00;12.50;;;;;;;;;;5079123;28;20491;-75
2021/06/12 11:22:18;;;;;;;16.70;12.17;;;;;;;;;;5082091;28;20488;-74
2021/06/12 11:24:45;;;;;;;19.23;13.90;;;;;;;;;;5078892;28;20409;-74
2021/06/12 11:27:30;;;;;;;15.30;12.83;;;;;;;;;;5083331;28;20411;-76
2021/06/12 11:30:14;;;;;;;17.00;12.57;;;;;;;;;;5083549;28;20403;-73
2021/06/12 11:33:01;;;;;;;17.80;12.90;;;;;;;;;;5080565;28;20489;-75
2021/06/12 11:35:45;;;;;;;17.13;12.40;;;;;;;;;;5081392;28;20407;-75
2021/06/12 11:38:11;;;;;;;15.50;11.60;;;;;;;;;;5080405;28;20409;-75
2021/06/12 11:40:38;;;;;;;17.17;12.53;;;;;;;;;;5080097;28;20989;-73
2021/06/12 11:43:04;;;;;;;14.37;11.87;;;;;;;;;;5080116;28;20427;-75
2021/06/12 11:45:32;;;;;;;15.67;12.00;;;;;;;;;;5080648;28;20417;-74
2021/06/12 11:47:58;;;;;;;17.40;13.50;;;;;;;;;;5082861;28;20445;-76
2021/06/12 11:50:28;;;;;;;16.47;13.67;;;;;;;;;;5080024;28;20413;-75
2021/06/12 11:52:54;;;;;;;17.97;14.80;;;;;;;;;;5079159;28;20458;-74
2021/06/12 11:55:22;;;;;;;15.97;13.90;;;;;;;;;;5079678;28;20412;-74
2021/06/12 11:57:49;;;;;;;18.03;13.80;;;;;;;;;;5081690;28;20470;-74
2021/06/12 12:00:35;;;;;;;17.23;14.03;;;;;;;;;;5082262;28;20422;-75
2021/06/12 12:03:01;;;;;;;18.20;13.50;;;;;;;;;;5085476;28;20434;-74
2021/06/12 12:05:34;;;;;;;17.17;15.07;;;;;;;;;;5078423;28;20424;-74
2021/06/12 12:08:01;;;;;;;16.53;12.30;;;;;;;;;;5079393;28;20909;-73
2021/06/12 12:10:27;;;;;;;16.17;12.00;;;;;;;;;;5078636;28;20429;-77
2021/06/12 12:12:54;;;;;;;16.30;13.97;;;;;;;;;;5080894;28;20415;-75
2021/06/12 12:15:39;;;;;;;15.30;12.43;;;;;;;;;;5080714;28;20402;-76
2021/06/12 12:18:06;;;;;;;15.07;11.93;;;;;;;;;;5079928;28;20409;-75
2021/06/12 12:20:57;;;;;;;15.40;13.50;;;;;;;;;;5081162;28;20453;-75
2021/06/12 12:23:31;;;;;;;16.97;13.70;;;;;;;;;;5079928;28;20420;-75
2021/06/12 12:26:08;;;;;;;18.10;15.00;;;;;;;;;;5074637;28;20410;-75
2021/06/12 12:28:51;;;;;;;16.30;12.77;;;;;;;;;;5079787;28;20438;-75
2021/06/12 12:31:17;;;;;;;16.53;13.20;;;;;;;;;;5095435;28;20417;-75
2021/06/12 12:33:47;;;;;;;19.40;14.00;;;;;;;;;;5079646;28;20469;-75
2021/06/12 12:36:14;;;;;;;15.57;12.50;;;;;;;;;;5080974;28;20836;-74
2021/06/12 12:38:40;;;;;;;15.93;12.87;;;;;;;;;;5080291;28;20536;-76
2021/06/12 12:41:07;;;;;;;15.10;12.67;;;;;;;;;;5079352;28;20496;-74
2021/06/12 12:43:35;;;;;;;13.40;10.53;;;;;;;;;;5079864;28;20594;-74
2021/06/12 12:46:04;;;;;;;17.63;12.03;;;;;;;;;;5078260;28;20424;-75
2021/06/12 12:48:30;;;;;;;13.63;11.07;;;;;;;;;;5079736;28;20462;-77
2021/06/12 12:50:56;;;;;;;12.90;9.33;;;;;;;;;;5083067;28;20389;-76
2021/06/12 12:53:22;;;;;;;11.67;9.13;;;;;;;;;;5081522;28;20486;-76
2021/06/12 12:55:56;;;;;;;9.47;8.40;;;;;;;;;;5079016;28;20415;-78
2021/06/12 12:58:26;;;;;;;13.53;9.63;;;;;;;;;;5079558;28;20427;-76
2021/06/12 13:01:02;;;;;;;10.47;9.07;;;;;;;;;;5080006;28;20499;-76
2021/06/12 13:03:28;;;;;;;9.47;7.93;;;;;;;;;;5079964;28;25113;-73
2021/06/12 13:05:54;;;;;;;7.23;5.93;;;;;;;;;;5092607;28;20432;-74
2021/06/12 13:08:20;;;;;;;6.23;5.60;;;;;;;;;;5078770;28;20473;-79
2021/06/12 13:10:47;;;;;;;6.40;5.60;;;;;;;;;;5079724;28;20438;-76
2021/06/12 13:13:20;;;;;;;8.00;6.60;;;;;;;;;;5078154;28;20440;-75
2021/06/12 13:15:59;;;;;;;7.77;6.87;;;;;;;;;;5082097;28;20449;-75
2021/06/12 13:18:33;;;;;;;6.03;5.43;;;;;;;;;;5083708;28;20757;-75
2021/06/12 13:21:09;;;;;;;6.50;5.57;;;;;;;;;;5081967;28;20531;-75
2021/06/12 13:23:35;;;;;;;6.60;4.57;;;;;;;;;;5085260;28;20389;-76
2021/06/12 13:26:14;;;;;;;4.80;4.23;;;;;;;;;;5081623;28;20408;-75
2021/06/12 13:28:40;;;;;;;4.10;3.50;;;;;;;;;;5081423;28;20519;-75
2021/06/12 13:31:16;;;;;;;3.60;3.30;;;;;;;;;;5081746;28;20403;-76
2021/06/12 13:33:42;;;;;;;3.87;3.47;;;;;;;;;;5082774;28;20471;-75
2021/06/12 13:36:13;;;;;;;3.57;3.27;;;;;;;;;;5080917;28;20399;-76
2021/06/12 13:38:40;;;;;;;5.00;4.33;;;;;;;;;;5083548;28;20428;-76
2021/06/12 13:41:11;;;;;;;5.07;3.30;;;;;;;;;;5080710;28;20418;-76
2021/06/12 13:43:46;;;;;;;3.03;2.67;;;;;;;;;;5083026;28;20422;-76
2021/06/12 13:46:12;;;;;;;4.10;2.87;;;;;;;;;;5086397;28;20917;-75
2021/06/12 13:48:40;;;;;;;3.50;3.20;;;;;;;;;;5082764;28;20416;-75
2021/06/12 13:51:06;;;;;;;3.17;2.87;;;;;;;;;;5083011;28;20429;-77
2021/06/12 13:53:39;;;;;;;2.70;2.50;;;;;;;;;;5093149;28;20494;-76
2021/06/12 13:56:09;;;;;;;2.80;2.60;;;;;;;;;;5080589;28;20406;-76
2021/06/12 13:58:35;;;;;;;2.83;2.63;;;;;;;;;;5082767;28;20441;-76
2021/06/12 14:01:02;;;;;;;3.93;2.83;;;;;;;;;;5081198;28;20506;-77
2021/06/12 14:03:28;;;;;;;3.20;2.70;;;;;;;;;;5081673;28;20446;-75
2021/06/12 14:05:54;;;;;;;2.33;2.13;;;;;;;;;;5085105;28;20483;-76
2021/06/12 14:08:19;;;;;;;3.97;2.53;;;;;;;;;;5081110;28;20740;-76
2021/06/12 14:10:45;;;;;;;2.53;2.33;;;;;;;;;;5080741;28;20803;-77
2021/06/12 14:13:11;;;;;;;2.17;1.97;;;;;;;;;;5080299;28;20556;-75
2021/06/12 14:15:37;;;;;;;3.93;2.10;;;;;;;;;;5079801;28;20464;-76
2021/06/12 14:18:04;;;;;;;2.50;2.30;;;;;;;;;;5080639;28;20453;-76
2021/06/12 14:20:30;;;;;;;2.20;1.90;;;;;;;;;;5082149;28;20421;-77
2021/06/12 14:22:56;;;;;;;2.17;1.97;;;;;;;;;;5079846;28;20424;-78
2021/06/12 14:25:22;;;;;;;2.87;2.30;;;;;;;;;;5079846;28;20515;-75
2021/06/12 14:27:50;;;;;;;2.03;1.83;;;;;;;;;;5080449;28;20508;-77
2021/06/12 14:30:19;;;;;;;2.40;2.20;;;;;;;;;;5080887;28;20976;-76
2021/06/12 14:32:45;;;;;;;2.10;1.80;;;;;;;;;;5081624;28;20448;-77
2021/06/12 14:35:12;;;;;;;2.23;2.13;;;;;;;;;;5079110;28;20416;-75
2021/06/12 14:37:38;;;;;;;2.40;2.20;;;;;;;;;;5077958;28;20451;-75
2021/06/12 14:40:05;;;;;;;2.27;2.07;;;;;;;;;;5080446;28;20757;-75